sensor_id;sensor_type;location;lat;lon;timestamp;pressure;altitude;pressure_sealevel;temperature;humidity
62928;BME280;51070;52.236;-0.892;2023-05-12T00:00:41;101192.63;;;12.33;89.77
62928;BME280;51070;52.236;-0.892;2023-05-12T00:03:06;101195.98;;;12.29;89.85
62928;BME280;51070;52.236;-0.892;2023-05-12T00:05:32;101196.60;;;12.27;90.45
62928;BME280;51070;52.236;-0.892;2023-05-12T00:07:57;101195.68;;;12.26;90.47
62928;BME280;51070;52.236;-0.892;2023-05-12T00:10:23;101194.73;;;12.23;90.83
62928;BME280;51070;52.236;-0.892;2023-05-12T00:12:48;101195.07;;;12.23;91.17
62928;BME280;51070;52.236;-0.892;2023-05-12T00:15:14;101200.47;;;12.24;91.38
62928;BME280;51070;52.236;-0.892;2023-05-12T00:17:39;101199.96;;;12.24;91.19
62928;BME280;51070;52.236;-0.892;2023-05-12T00:20:05;101206.17;;;12.24;91.16
62928;BME280;51070;52.236;-0.892;2023-05-12T00:22:31;101210.29;;;12.22;91.36
62928;BME280;51070;52.236;-0.892;2023-05-12T00:24:56;101209.70;;;12.20;91.40
62928;BME280;51070;52.236;-0.892;2023-05-12T00:27:22;101209.99;;;12.18;91.49
62928;BME280;51070;52.236;-0.892;2023-05-12T00:29:47;101209.73;;;12.16;91.77
62928;BME280;51070;52.236;-0.892;2023-05-12T00:32:13;101213.98;;;12.13;91.93
62928;BME280;51070;52.236;-0.892;2023-05-12T00:34:38;101218.36;;;12.10;91.87
62928;BME280;51070;52.236;-0.892;2023-05-12T00:37:04;101218.86;;;12.09;92.24
62928;BME280;51070;52.236;-0.892;2023-05-12T00:39:30;101223.12;;;12.07;92.26
62928;BME280;51070;52.236;-0.892;2023-05-12T00:41:57;101220.94;;;12.04;92.21
62928;BME280;51070;52.236;-0.892;2023-05-12T00:44:23;101227.53;;;12.04;92.20
62928;BME280;51070;52.236;-0.892;2023-05-12T00:46:49;101229.17;;;12.02;91.99
62928;BME280;51070;52.236;-0.892;2023-05-12T00:49:15;101230.67;;;12.00;92.30
62928;BME280;51070;52.236;-0.892;2023-05-12T00:51:41;101232.18;;;11.98;92.53
62928;BME280;51070;52.236;-0.892;2023-05-12T00:54:08;101240.33;;;11.98;92.48
62928;BME280;51070;52.236;-0.892;2023-05-12T00:56:34;101239.27;;;11.98;92.40
62928;BME280;51070;52.236;-0.892;2023-05-12T00:59:06;101240.80;;;11.97;92.56
62928;BME280;51070;52.236;-0.892;2023-05-12T01:01:33;101238.55;;;11.97;92.40
62928;BME280;51070;52.236;-0.892;2023-05-12T01:03:59;101244.05;;;11.96;92.46
62928;BME280;51070;52.236;-0.892;2023-05-12T01:06:37;101244.20;;;11.95;92.68
62928;BME280;51070;52.236;-0.892;2023-05-12T01:09:06;101246.84;;;11.96;92.75
62928;BME280;51070;52.236;-0.892;2023-05-12T01:11:32;101245.79;;;11.96;92.61
62928;BME280;51070;52.236;-0.892;2023-05-12T01:13:58;101248.35;;;11.95;92.88
62928;BME280;51070;52.236;-0.892;2023-05-12T01:16:28;101247.64;;;11.95;92.96
62928;BME280;51070;52.236;-0.892;2023-05-12T01:18:56;101246.34;;;11.97;92.87
62928;BME280;51070;52.236;-0.892;2023-05-12T01:21:22;101248.98;;;11.98;93.02
62928;BME280;51070;52.236;-0.892;2023-05-12T01:23:52;101244.46;;;11.97;92.86
62928;BME280;51070;52.236;-0.892;2023-05-12T01:26:19;101243.95;;;11.98;93.26
62928;BME280;51070;52.236;-0.892;2023-05-12T01:28:45;101244.38;;;11.96;93.20
62928;BME280;51070;52.236;-0.892;2023-05-12T01:31:12;101243.11;;;11.94;93.51
62928;BME280;51070;52.236;-0.892;2023-05-12T01:33:38;101251.38;;;11.93;93.52
62928;BME280;51070;52.236;-0.892;2023-05-12T01:36:04;101253.63;;;11.92;93.81
62928;BME280;51070;52.236;-0.892;2023-05-12T01:38:30;101256.84;;;11.90;93.68
62928;BME280;51070;52.236;-0.892;2023-05-12T01:40:55;101256.73;;;11.87;93.74
62928;BME280;51070;52.236;-0.892;2023-05-12T01:43:21;101255.81;;;11.86;93.63
62928;BME280;51070;52.236;-0.892;2023-05-12T01:45:46;101258.14;;;11.88;93.71
62928;BME280;51070;52.236;-0.892;2023-05-12T01:48:11;101257.80;;;11.89;93.10
62928;BME280;51070;52.236;-0.892;2023-05-12T01:50:37;101257.92;;;11.91;93.18
62928;BME280;51070;52.236;-0.892;2023-05-12T01:53:02;101262.19;;;11.95;92.73
62928;BME280;51070;52.236;-0.892;2023-05-12T01:55:28;101261.80;;;11.94;92.11
62928;BME280;51070;52.236;-0.892;2023-05-12T01:57:53;101265.02;;;11.91;92.14
62928;BME280;51070;52.236;-0.892;2023-05-12T02:00:18;101267.55;;;11.90;92.22
62928;BME280;51070;52.236;-0.892;2023-05-12T02:02:44;101268.33;;;11.87;92.04
62928;BME280;51070;52.236;-0.892;2023-05-12T02:05:09;101268.23;;;11.84;92.11
62928;BME280;51070;52.236;-0.892;2023-05-12T02:07:35;101271.05;;;11.86;92.31
62928;BME280;51070;52.236;-0.892;2023-05-12T02:10:00;101273.34;;;11.87;92.23
62928;BME280;51070;52.236;-0.892;2023-05-12T02:12:26;101277.58;;;11.85;92.30
62928;BME280;51070;52.236;-0.892;2023-05-12T02:14:51;101278.41;;;11.84;92.53
62928;BME280;51070;52.236;-0.892;2023-05-12T02:17:16;101283.81;;;11.84;92.50
62928;BME280;51070;52.236;-0.892;2023-05-12T02:19:42;101289.05;;;11.86;92.55
62928;BME280;51070;52.236;-0.892;2023-05-12T02:22:07;101289.98;;;11.87;92.68
62928;BME280;51070;52.236;-0.892;2023-05-12T02:24:33;101296.62;;;11.89;92.46
62928;BME280;51070;52.236;-0.892;2023-05-12T02:26:58;101293.77;;;11.91;92.11
62928;BME280;51070;52.236;-0.892;2023-05-12T02:29:23;101296.38;;;11.92;91.59
62928;BME280;51070;52.236;-0.892;2023-05-12T02:31:50;101300.75;;;11.88;90.90
62928;BME280;51070;52.236;-0.892;2023-05-12T02:34:16;101304.30;;;11.86;90.47
62928;BME280;51070;52.236;-0.892;2023-05-12T02:36:41;101305.58;;;11.83;89.95
62928;BME280;51070;52.236;-0.892;2023-05-12T02:39:07;101308.16;;;11.78;89.72
62928;BME280;51070;52.236;-0.892;2023-05-12T02:41:32;101310.71;;;11.72;89.46
62928;BME280;51070;52.236;-0.892;2023-05-12T02:43:58;101310.71;;;11.68;89.42
62928;BME280;51070;52.236;-0.892;2023-05-12T02:46:23;101318.41;;;11.65;89.58
62928;BME280;51070;52.236;-0.892;2023-05-12T02:48:48;101317.56;;;11.61;89.53
62928;BME280;51070;52.236;-0.892;2023-05-12T02:51:14;101320.09;;;11.59;89.39
62928;BME280;51070;52.236;-0.892;2023-05-12T02:53:39;101322.40;;;11.57;89.25
62928;BME280;51070;52.236;-0.892;2023-05-12T02:56:05;101325.84;;;11.56;89.45
62928;BME280;51070;52.236;-0.892;2023-05-12T02:58:31;101329.89;;;11.58;89.61
62928;BME280;51070;52.236;-0.892;2023-05-12T03:00:56;101329.30;;;11.61;89.44
62928;BME280;51070;52.236;-0.892;2023-05-12T03:03:21;101334.51;;;11.61;89.03
62928;BME280;51070;52.236;-0.892;2023-05-12T03:05:47;101335.34;;;11.60;88.66
62928;BME280;51070;52.236;-0.892;2023-05-12T03:08:13;101337.16;;;11.58;88.65
62928;BME280;51070;52.236;-0.892;2023-05-12T03:10:39;101341.36;;;11.54;88.56
62928;BME280;51070;52.236;-0.892;2023-05-12T03:13:04;101338.80;;;11.51;88.88
62928;BME280;51070;52.236;-0.892;2023-05-12T03:15:29;101342.85;;;11.48;88.94
62928;BME280;51070;52.236;-0.892;2023-05-12T03:17:54;101343.14;;;11.47;88.94
62928;BME280;51070;52.236;-0.892;2023-05-12T03:20:20;101346.18;;;11.45;89.06
62928;BME280;51070;52.236;-0.892;2023-05-12T03:22:46;101346.48;;;11.43;88.78
62928;BME280;51070;52.236;-0.892;2023-05-12T03:25:11;101344.33;;;11.42;88.93
62928;BME280;51070;52.236;-0.892;2023-05-12T03:27:36;101345.95;;;11.43;89.13
62928;BME280;51070;52.236;-0.892;2023-05-12T03:30:05;101350.83;;;11.44;88.91
62928;BME280;51070;52.236;-0.892;2023-05-12T03:32:31;101347.42;;;11.41;88.80
62928;BME280;51070;52.236;-0.892;2023-05-12T03:34:56;101345.61;;;11.40;88.99
62928;BME280;51070;52.236;-0.892;2023-05-12T03:37:21;101346.91;;;11.41;88.97
62928;BME280;51070;52.236;-0.892;2023-05-12T03:39:47;101344.95;;;11.44;88.96
62928;BME280;51070;52.236;-0.892;2023-05-12T03:42:13;101348.52;;;11.43;88.50
62928;BME280;51070;52.236;-0.892;2023-05-12T03:44:38;101349.43;;;11.39;88.08
62928;BME280;51070;52.236;-0.892;2023-05-12T03:47:04;101350.02;;;11.36;88.17
62928;BME280;51070;52.236;-0.892;2023-05-12T03:49:29;101349.69;;;11.32;88.12
62928;BME280;51070;52.236;-0.892;2023-05-12T03:51:55;101351.11;;;11.29;88.39
62928;BME280;51070;52.236;-0.892;2023-05-12T03:54:20;101352.58;;;11.26;88.55
62928;BME280;51070;52.236;-0.892;2023-05-12T03:56:46;101355.83;;;11.25;88.81
62928;BME280;51070;52.236;-0.892;2023-05-12T03:59:11;101357.34;;;11.29;89.39
62928;BME280;51070;52.236;-0.892;2023-05-12T04:01:37;101359.57;;;11.33;89.30
62928;BME280;51070;52.236;-0.892;2023-05-12T04:04:03;101361.70;;;11.35;89.11
62928;BME280;51070;52.236;-0.892;2023-05-12T04:06:28;101364.17;;;11.35;89.05
62928;BME280;51070;52.236;-0.892;2023-05-12T04:08:53;101366.54;;;11.34;88.87
62928;BME280;51070;52.236;-0.892;2023-05-12T04:11:19;101369.64;;;11.34;88.83
62928;BME280;51070;52.236;-0.892;2023-05-12T04:13:44;101374.55;;;11.31;88.33
62928;BME280;51070;52.236;-0.892;2023-05-12T04:16:09;101372.57;;;11.24;87.89
62928;BME280;51070;52.236;-0.892;2023-05-12T04:18:35;101373.59;;;11.20;88.12
62928;BME280;51070;52.236;-0.892;2023-05-12T04:21:01;101375.50;;;11.16;87.99
62928;BME280;51070;52.236;-0.892;2023-05-12T04:23:28;101383.17;;;11.13;88.01
62928;BME280;51070;52.236;-0.892;2023-05-12T04:25:53;101387.91;;;11.10;88.34
62928;BME280;51070;52.236;-0.892;2023-05-12T04:28:19;101388.39;;;11.10;88.54
62928;BME280;51070;52.236;-0.892;2023-05-12T04:30:44;101387.56;;;11.10;88.25
62928;BME280;51070;52.236;-0.892;2023-05-12T04:33:10;101389.17;;;11.12;88.35
62928;BME280;51070;52.236;-0.892;2023-05-12T04:35:35;101391.77;;;11.12;88.21
62928;BME280;51070;52.236;-0.892;2023-05-12T04:38:01;101394.77;;;11.14;88.55
62928;BME280;51070;52.236;-0.892;2023-05-12T04:40:27;101398.98;;;11.15;88.27
62928;BME280;51070;52.236;-0.892;2023-05-12T04:42:52;101398.14;;;11.15;88.39
62928;BME280;51070;52.236;-0.892;2023-05-12T04:45:18;101399.38;;;11.16;88.29
62928;BME280;51070;52.236;-0.892;2023-05-12T04:47:43;101396.16;;;11.17;88.50
62928;BME280;51070;52.236;-0.892;2023-05-12T04:50:09;101399.20;;;11.20;88.59
62928;BME280;51070;52.236;-0.892;2023-05-12T04:52:36;101403.80;;;11.23;88.66
62928;BME280;51070;52.236;-0.892;2023-05-12T04:55:01;101409.11;;;11.25;88.60
62928;BME280;51070;52.236;-0.892;2023-05-12T04:57:27;101411.76;;;11.26;88.22
62928;BME280;51070;52.236;-0.892;2023-05-12T04:59:52;101416.26;;;11.27;88.18
62928;BME280;51070;52.236;-0.892;2023-05-12T05:02:18;101421.25;;;11.30;88.32
62928;BME280;51070;52.236;-0.892;2023-05-12T05:04:43;101424.66;;;11.33;88.14
62928;BME280;51070;52.236;-0.892;2023-05-12T05:07:08;101423.89;;;11.36;88.23
62928;BME280;51070;52.236;-0.892;2023-05-12T05:09:34;101422.73;;;11.37;88.09
62928;BME280;51070;52.236;-0.892;2023-05-12T05:11:59;101425.39;;;11.39;88.42
62928;BME280;51070;52.236;-0.892;2023-05-12T05:14:25;101418.80;;;11.43;88.40
62928;BME280;51070;52.236;-0.892;2023-05-12T05:16:50;101421.31;;;11.45;88.43
62928;BME280;51070;52.236;-0.892;2023-05-12T05:19:15;101421.31;;;11.46;88.11
62928;BME280;51070;52.236;-0.892;2023-05-12T05:21:41;101422.17;;;11.45;88.16
62928;BME280;51070;52.236;-0.892;2023-05-12T05:24:06;101424.91;;;11.49;88.23
62928;BME280;51070;52.236;-0.892;2023-05-12T05:26:32;101429.60;;;11.53;88.15
62928;BME280;51070;52.236;-0.892;2023-05-12T05:28:58;101430.52;;;11.59;88.11
62928;BME280;51070;52.236;-0.892;2023-05-12T05:31:24;101434.70;;;11.64;87.85
62928;BME280;51070;52.236;-0.892;2023-05-12T05:33:50;101439.73;;;11.64;87.34
62928;BME280;51070;52.236;-0.892;2023-05-12T05:36:15;101440.48;;;11.62;86.98
62928;BME280;51070;52.236;-0.892;2023-05-12T05:38:41;101441.88;;;11.62;87.05
62928;BME280;51070;52.236;-0.892;2023-05-12T05:41:07;101448.84;;;11.63;86.83
62928;BME280;51070;52.236;-0.892;2023-05-12T05:43:32;101449.17;;;11.62;86.71
62928;BME280;51070;52.236;-0.892;2023-05-12T05:45:58;101454.13;;;11.70;86.80
62928;BME280;51070;52.236;-0.892;2023-05-12T05:48:23;101458.63;;;11.77;86.29
62928;BME280;51070;52.236;-0.892;2023-05-12T05:50:50;101460.92;;;11.79;85.82
62928;BME280;51070;52.236;-0.892;2023-05-12T05:53:16;101463.30;;;11.82;85.88
62928;BME280;51070;52.236;-0.892;2023-05-12T05:55:46;101464.56;;;11.88;85.79
62928;BME280;51070;52.236;-0.892;2023-05-12T05:58:13;101469.38;;;11.91;86.00
62928;BME280;51070;52.236;-0.892;2023-05-12T06:00:40;101468.73;;;11.92;85.39
62928;BME280;51070;52.236;-0.892;2023-05-12T06:03:07;101469.48;;;11.94;85.58
62928;BME280;51070;52.236;-0.892;2023-05-12T06:05:33;101470.15;;;11.97;85.59
62928;BME280;51070;52.236;-0.892;2023-05-12T06:07:58;101470.02;;;11.99;85.83
62928;BME280;51070;52.236;-0.892;2023-05-12T06:10:23;101478.15;;;11.98;85.52
62928;BME280;51070;52.236;-0.892;2023-05-12T06:12:49;101479.11;;;12.01;85.91
62928;BME280;51070;52.236;-0.892;2023-05-12T06:15:14;101478.47;;;12.07;85.57
62928;BME280;51070;52.236;-0.892;2023-05-12T06:17:40;101477.57;;;12.15;85.20
62928;BME280;51070;52.236;-0.892;2023-05-12T06:20:06;101482.92;;;12.19;85.16
62928;BME280;51070;52.236;-0.892;2023-05-12T06:22:32;101480.86;;;12.29;85.32
62928;BME280;51070;52.236;-0.892;2023-05-12T06:24:59;101480.71;;;12.39;84.88
62928;BME280;51070;52.236;-0.892;2023-05-12T06:27:25;101482.57;;;12.42;84.19
62928;BME280;51070;52.236;-0.892;2023-05-12T06:29:51;101487.48;;;12.44;84.49
62928;BME280;51070;52.236;-0.892;2023-05-12T06:32:16;101492.64;;;12.52;84.26
62928;BME280;51070;52.236;-0.892;2023-05-12T06:34:42;101493.35;;;12.62;83.56
62928;BME280;51070;52.236;-0.892;2023-05-12T06:37:07;101496.06;;;12.70;83.40
62928;BME280;51070;52.236;-0.892;2023-05-12T06:39:33;101499.27;;;12.82;83.25
62928;BME280;51070;52.236;-0.892;2023-05-12T06:41:58;101498.28;;;12.98;83.18
62928;BME280;51070;52.236;-0.892;2023-05-12T06:44:23;101501.67;;;13.15;81.86
62928;BME280;51070;52.236;-0.892;2023-05-12T06:46:49;101498.48;;;13.28;80.54
62928;BME280;51070;52.236;-0.892;2023-05-12T06:49:14;101496.33;;;13.42;80.12
62928;BME280;51070;52.236;-0.892;2023-05-12T06:51:39;101498.00;;;13.62;79.50
62928;BME280;51070;52.236;-0.892;2023-05-12T06:54:05;101495.85;;;13.81;78.42
62928;BME280;51070;52.236;-0.892;2023-05-12T06:56:30;101496.91;;;13.81;77.99
62928;BME280;51070;52.236;-0.892;2023-05-12T06:58:56;101502.30;;;13.82;77.54
62928;BME280;51070;52.236;-0.892;2023-05-12T07:01:29;101501.34;;;13.90;77.09
62928;BME280;51070;52.236;-0.892;2023-05-12T07:03:55;101506.06;;;13.97;76.95
62928;BME280;51070;52.236;-0.892;2023-05-12T07:06:20;101504.76;;;14.11;76.98
62928;BME280;51070;52.236;-0.892;2023-05-12T07:08:46;101507.36;;;14.39;76.05
62928;BME280;51070;52.236;-0.892;2023-05-12T07:11:12;101505.09;;;14.81;74.53
62928;BME280;51070;52.236;-0.892;2023-05-12T07:13:47;101504.84;;;15.18;73.42
62928;BME280;51070;52.236;-0.892;2023-05-12T07:16:14;101502.45;;;15.40;71.92
62928;BME280;51070;52.236;-0.892;2023-05-12T07:18:39;101510.08;;;15.59;71.38
62928;BME280;51070;52.236;-0.892;2023-05-12T07:21:05;101506.02;;;15.79;71.10
62928;BME280;51070;52.236;-0.892;2023-05-12T07:23:30;101508.39;;;15.97;70.26
62928;BME280;51070;52.236;-0.892;2023-05-12T07:25:56;101510.15;;;16.06;69.70
62928;BME280;51070;52.236;-0.892;2023-05-12T07:28:21;101513.23;;;16.04;68.78
62928;BME280;51070;52.236;-0.892;2023-05-12T07:30:47;101513.34;;;16.01;68.56
62928;BME280;51070;52.236;-0.892;2023-05-12T07:33:12;101514.45;;;16.11;67.88
62928;BME280;51070;52.236;-0.892;2023-05-12T07:35:38;101515.66;;;15.96;68.04
62928;BME280;51070;52.236;-0.892;2023-05-12T07:38:03;101515.20;;;15.99;67.81
62928;BME280;51070;52.236;-0.892;2023-05-12T07:40:28;101517.45;;;15.90;67.16
62928;BME280;51070;52.236;-0.892;2023-05-12T07:42:54;101516.86;;;15.73;67.04
62928;BME280;51070;52.236;-0.892;2023-05-12T07:45:19;101525.42;;;15.59;66.96
62928;BME280;51070;52.236;-0.892;2023-05-12T07:47:50;101525.19;;;15.58;66.58
62928;BME280;51070;52.236;-0.892;2023-05-12T07:50:17;101523.77;;;15.99;66.25
62928;BME280;51070;52.236;-0.892;2023-05-12T07:52:49;101526.10;;;15.95;66.39
62928;BME280;51070;52.236;-0.892;2023-05-12T07:55:17;101529.11;;;15.82;66.55
62928;BME280;51070;52.236;-0.892;2023-05-12T07:57:43;101536.11;;;15.69;66.67
62928;BME280;51070;52.236;-0.892;2023-05-12T08:00:10;101538.04;;;15.55;66.34
62928;BME280;51070;52.236;-0.892;2023-05-12T08:02:36;101538.05;;;15.36;65.96
62928;BME280;51070;52.236;-0.892;2023-05-12T08:05:02;101542.58;;;15.16;66.32
62928;BME280;51070;52.236;-0.892;2023-05-12T08:07:27;101545.85;;;15.02;66.53
62928;BME280;51070;52.236;-0.892;2023-05-12T08:09:53;101547.79;;;14.84;67.05
62928;BME280;51070;52.236;-0.892;2023-05-12T08:12:19;101547.77;;;14.64;67.93
62928;BME280;51070;52.236;-0.892;2023-05-12T08:14:45;101549.97;;;14.56;68.17
62928;BME280;51070;52.236;-0.892;2023-05-12T08:17:11;101550.33;;;14.56;68.58
62928;BME280;51070;52.236;-0.892;2023-05-12T08:19:36;101547.77;;;14.53;69.01
62928;BME280;51070;52.236;-0.892;2023-05-12T08:22:02;101548.08;;;14.69;68.61
62928;BME280;51070;52.236;-0.892;2023-05-12T08:24:27;101544.77;;;15.08;68.44
62928;BME280;51070;52.236;-0.892;2023-05-12T08:26:53;101547.59;;;15.61;66.84
62928;BME280;51070;52.236;-0.892;2023-05-12T08:29:18;101549.20;;;15.63;66.77
62928;BME280;51070;52.236;-0.892;2023-05-12T08:31:43;101550.26;;;15.56;66.68
62928;BME280;51070;52.236;-0.892;2023-05-12T08:34:10;101552.51;;;15.62;65.89
62928;BME280;51070;52.236;-0.892;2023-05-12T08:36:37;101552.30;;;15.75;65.52
62928;BME280;51070;52.236;-0.892;2023-05-12T08:39:03;101550.83;;;15.86;65.08
62928;BME280;51070;52.236;-0.892;2023-05-12T08:41:42;101550.23;;;15.98;63.69
62928;BME280;51070;52.236;-0.892;2023-05-12T08:44:10;101554.92;;;15.90;63.41
62928;BME280;51070;52.236;-0.892;2023-05-12T08:46:36;101562.83;;;15.92;63.25
62928;BME280;51070;52.236;-0.892;2023-05-12T08:49:02;101561.67;;;15.88;63.59
62928;BME280;51070;52.236;-0.892;2023-05-12T08:51:30;101562.86;;;15.79;63.83
62928;BME280;51070;52.236;-0.892;2023-05-12T08:53:56;101563.69;;;15.63;64.48
62928;BME280;51070;52.236;-0.892;2023-05-12T08:56:22;101572.85;;;15.35;65.14
62928;BME280;51070;52.236;-0.892;2023-05-12T08:58:49;101571.20;;;15.18;65.76
62928;BME280;51070;52.236;-0.892;2023-05-12T09:01:16;101578.75;;;15.08;66.27
62928;BME280;51070;52.236;-0.892;2023-05-12T09:03:42;101577.88;;;15.02;66.57
62928;BME280;51070;52.236;-0.892;2023-05-12T09:06:08;101581.88;;;14.95;67.14
62928;BME280;51070;52.236;-0.892;2023-05-12T09:08:36;101579.70;;;14.92;67.51
62928;BME280;51070;52.236;-0.892;2023-05-12T09:11:02;101578.35;;;15.06;67.31
62928;BME280;51070;52.236;-0.892;2023-05-12T09:13:51;101581.11;;;15.25;66.79
62928;BME280;51070;52.236;-0.892;2023-05-12T09:16:23;101581.46;;;15.37;66.31
62928;BME280;51070;52.236;-0.892;2023-05-12T09:18:56;101581.63;;;15.31;66.33
62928;BME280;51070;52.236;-0.892;2023-05-12T09:21:22;101577.22;;;15.22;66.58
62928;BME280;51070;52.236;-0.892;2023-05-12T09:23:52;101583.84;;;15.23;67.03
62928;BME280;51070;52.236;-0.892;2023-05-12T09:26:19;101584.50;;;15.28;66.39
62928;BME280;51070;52.236;-0.892;2023-05-12T09:28:46;101588.98;;;15.39;66.19
62928;BME280;51070;52.236;-0.892;2023-05-12T09:31:18;101587.11;;;15.47;66.36
62928;BME280;51070;52.236;-0.892;2023-05-12T09:33:44;101586.30;;;15.55;65.84
62928;BME280;51070;52.236;-0.892;2023-05-12T09:36:10;101582.04;;;15.87;65.22
62928;BME280;51070;52.236;-0.892;2023-05-12T09:38:35;101579.52;;;16.13;65.01
62928;BME280;51070;52.236;-0.892;2023-05-12T09:41:01;101582.56;;;16.31;65.02
62928;BME280;51070;52.236;-0.892;2023-05-12T09:43:26;101587.73;;;16.52;64.57
62928;BME280;51070;52.236;-0.892;2023-05-12T09:45:52;101591.27;;;16.47;63.92
62928;BME280;51070;52.236;-0.892;2023-05-12T09:48:19;101587.49;;;16.26;63.91
62928;BME280;51070;52.236;-0.892;2023-05-12T09:50:50;101589.98;;;16.06;64.25
62928;BME280;51070;52.236;-0.892;2023-05-12T09:53:18;101590.83;;;15.96;64.70
62928;BME280;51070;52.236;-0.892;2023-05-12T09:55:45;101590.97;;;15.88;64.58
62928;BME280;51070;52.236;-0.892;2023-05-12T09:58:14;101590.48;;;15.82;64.99
62928;BME280;51070;52.236;-0.892;2023-05-12T10:00:40;101596.65;;;15.72;65.22
62928;BME280;51070;52.236;-0.892;2023-05-12T10:03:12;101596.08;;;15.56;65.65
62928;BME280;51070;52.236;-0.892;2023-05-12T10:05:45;101598.24;;;15.66;66.05
62928;BME280;51070;52.236;-0.892;2023-05-12T10:08:16;101598.91;;;15.72;65.82
62928;BME280;51070;52.236;-0.892;2023-05-12T10:10:46;101592.23;;;15.69;65.78
62928;BME280;51070;52.236;-0.892;2023-05-12T10:13:13;101594.21;;;15.71;65.79
62928;BME280;51070;52.236;-0.892;2023-05-12T10:15:39;101587.19;;;16.13;65.49
62928;BME280;51070;52.236;-0.892;2023-05-12T10:18:05;101588.54;;;16.41;64.63
62928;BME280;51070;52.236;-0.892;2023-05-12T10:20:32;101589.48;;;16.44;63.76
62928;BME280;51070;52.236;-0.892;2023-05-12T10:22:59;101587.98;;;16.63;63.03
62928;BME280;51070;52.236;-0.892;2023-05-12T10:25:27;101586.42;;;17.06;62.02
62928;BME280;51070;52.236;-0.892;2023-05-12T10:27:54;101591.22;;;17.10;61.69
62928;BME280;51070;52.236;-0.892;2023-05-12T10:30:21;101591.43;;;16.94;61.27
62928;BME280;51070;52.236;-0.892;2023-05-12T10:32:46;101595.17;;;16.72;61.59
62928;BME280;51070;52.236;-0.892;2023-05-12T10:35:13;101597.65;;;16.51;61.94
62928;BME280;51070;52.236;-0.892;2023-05-12T10:37:41;101593.41;;;16.80;61.63
62928;BME280;51070;52.236;-0.892;2023-05-12T10:40:07;101592.86;;;17.61;60.63
62928;BME280;51070;52.236;-0.892;2023-05-12T10:42:40;101582.31;;;18.21;58.93
62928;BME280;51070;52.236;-0.892;2023-05-12T10:45:17;101585.13;;;17.99;58.70
62928;BME280;51070;52.236;-0.892;2023-05-12T10:47:44;101592.46;;;17.58;59.64
62928;BME280;51070;52.236;-0.892;2023-05-12T10:50:10;101591.09;;;17.30;60.37
62928;BME280;51070;52.236;-0.892;2023-05-12T10:52:52;101592.65;;;17.20;61.03
62928;BME280;51070;52.236;-0.892;2023-05-12T10:55:29;101588.42;;;17.01;61.26
62928;BME280;51070;52.236;-0.892;2023-05-12T10:58:03;101587.30;;;17.05;61.46
62928;BME280;51070;52.236;-0.892;2023-05-12T11:00:29;101582.17;;;17.21;61.03
62928;BME280;51070;52.236;-0.892;2023-05-12T11:02:54;101584.84;;;17.05;60.59
62928;BME280;51070;52.236;-0.892;2023-05-12T11:05:20;101583.56;;;16.93;60.67
62928;BME280;51070;52.236;-0.892;2023-05-12T11:07:47;101583.15;;;16.91;61.02
62928;BME280;51070;52.236;-0.892;2023-05-12T11:10:13;101583.25;;;16.95;60.73
62928;BME280;51070;52.236;-0.892;2023-05-12T11:12:42;101581.59;;;16.90;60.40
62928;BME280;51070;52.236;-0.892;2023-05-12T11:15:11;101580.23;;;16.76;61.04
62928;BME280;51070;52.236;-0.892;2023-05-12T11:17:40;101581.33;;;16.87;60.60
62928;BME280;51070;52.236;-0.892;2023-05-12T11:20:06;101575.54;;;16.94;59.99
62928;BME280;51070;52.236;-0.892;2023-05-12T11:22:34;101573.10;;;16.93;59.71
62928;BME280;51070;52.236;-0.892;2023-05-12T11:25:08;101570.49;;;16.86;59.64
62928;BME280;51070;52.236;-0.892;2023-05-12T11:27:34;101575.27;;;16.72;60.02
62928;BME280;51070;52.236;-0.892;2023-05-12T11:30:01;101572.70;;;16.59;60.47
62928;BME280;51070;52.236;-0.892;2023-05-12T11:32:27;101568.45;;;16.48;60.98
62928;BME280;51070;52.236;-0.892;2023-05-12T11:34:53;101564.34;;;16.44;61.10
62928;BME280;51070;52.236;-0.892;2023-05-12T11:37:19;101569.54;;;16.43;60.91
62928;BME280;51070;52.236;-0.892;2023-05-12T11:39:45;101570.23;;;16.33;60.35
62928;BME280;51070;52.236;-0.892;2023-05-12T11:42:11;101571.30;;;16.19;61.01
62928;BME280;51070;52.236;-0.892;2023-05-12T11:44:47;101576.50;;;15.96;62.04
62928;BME280;51070;52.236;-0.892;2023-05-12T11:47:13;101576.52;;;15.68;63.61
62928;BME280;51070;52.236;-0.892;2023-05-12T11:49:52;101579.68;;;15.49;64.60
62928;BME280;51070;52.236;-0.892;2023-05-12T11:52:22;101578.90;;;15.33;65.34
62928;BME280;51070;52.236;-0.892;2023-05-12T11:54:49;101580.23;;;15.18;65.64
62928;BME280;51070;52.236;-0.892;2023-05-12T11:57:30;101580.66;;;15.01;65.51
62928;BME280;51070;52.236;-0.892;2023-05-12T12:00:02;101580.58;;;14.92;65.99
62928;BME280;51070;52.236;-0.892;2023-05-12T12:02:28;101580.46;;;14.94;66.88
62928;BME280;51070;52.236;-0.892;2023-05-12T12:04:53;101582.59;;;14.96;67.14
62928;BME280;51070;52.236;-0.892;2023-05-12T12:07:29;101585.33;;;14.94;67.13
62928;BME280;51070;52.236;-0.892;2023-05-12T12:10:09;101584.74;;;14.86;67.87
62928;BME280;51070;52.236;-0.892;2023-05-12T12:12:35;101579.35;;;14.80;68.86
62928;BME280;51070;52.236;-0.892;2023-05-12T12:15:00;101585.13;;;14.75;69.18
62928;BME280;51070;52.236;-0.892;2023-05-12T12:17:25;101590.27;;;14.73;69.80
62928;BME280;51070;52.236;-0.892;2023-05-12T12:19:55;101584.45;;;14.70;69.99
62928;BME280;51070;52.236;-0.892;2023-05-12T12:22:20;101585.77;;;14.67;69.91
62928;BME280;51070;52.236;-0.892;2023-05-12T12:24:46;101591.48;;;14.66;70.00
62928;BME280;51070;52.236;-0.892;2023-05-12T12:27:11;101596.48;;;14.59;69.68
62928;BME280;51070;52.236;-0.892;2023-05-12T12:29:37;101596.92;;;14.51;69.90
62928;BME280;51070;52.236;-0.892;2023-05-12T12:32:02;101604.52;;;14.48;70.08
62928;BME280;51070;52.236;-0.892;2023-05-12T12:34:28;101605.98;;;14.46;70.27
62928;BME280;51070;52.236;-0.892;2023-05-12T12:36:54;101613.68;;;14.41;70.71